createdAt,value
2022-11-17T00:01:34.942Z,9.70
2022-11-17T00:04:02.408Z,9.60
2022-11-17T00:06:29.949Z,9.40
2022-11-17T00:08:57.446Z,9.30
2022-11-17T00:11:24.938Z,9.50
2022-11-17T00:14:10.892Z,9.60
2022-11-17T00:16:38.339Z,9.50
2022-11-17T00:19:24.409Z,9.40
2022-11-17T00:21:52.960Z,9.40
2022-11-17T00:24:20.493Z,9.30
2022-11-17T00:27:03.157Z,9.20
2022-11-17T00:29:31.220Z,9.20
2022-11-17T00:32:17.818Z,9.40
2022-11-17T00:34:45.353Z,9.50
2022-11-17T00:37:13.369Z,9.40
2022-11-17T00:39:40.793Z,9.50
2022-11-17T00:42:08.502Z,9.40
2022-11-17T00:44:36.035Z,9.50
2022-11-17T00:47:03.575Z,9.30
2022-11-17T00:49:31.060Z,9.20
2022-11-17T00:51:58.555Z,9.20
2022-11-17T00:54:26.180Z,9.20
2022-11-17T00:56:53.605Z,9.20
2022-11-17T00:59:21.184Z,9.40
2022-11-17T01:01:48.690Z,9.50
2022-11-17T01:04:16.311Z,9.50
2022-11-17T01:06:45.229Z,9.40
2022-11-17T01:09:14.581Z,9.40
2022-11-17T01:11:42.778Z,9.40
2022-11-17T01:14:18.114Z,9.50
2022-11-17T01:16:45.858Z,9.50
2022-11-17T01:19:14.794Z,9.30
2022-11-17T01:21:42.791Z,9.10
2022-11-17T01:24:11.471Z,9.00
2022-11-17T01:26:39.525Z,8.90
2022-11-17T01:29:07.596Z,8.90
2022-11-17T01:31:36.660Z,8.90
2022-11-17T01:34:04.674Z,8.90
2022-11-17T01:36:52.411Z,9.00
2022-11-17T01:39:20.176Z,9.10
2022-11-17T01:41:47.739Z,9.20
2022-11-17T01:44:34.054Z,9.20
2022-11-17T01:47:02.211Z,9.10
2022-11-17T01:49:29.808Z,9.10
2022-11-17T01:52:03.626Z,9.20
2022-11-17T01:54:32.199Z,9.20
2022-11-17T01:57:02.731Z,9.10
2022-11-17T01:59:33.479Z,9.00
2022-11-17T02:02:01.163Z,9.00
2022-11-17T02:04:28.538Z,8.90
2022-11-17T02:07:15.837Z,8.80
2022-11-17T02:09:43.866Z,8.80
2022-11-17T02:12:13.146Z,8.70
2022-11-17T02:14:41.061Z,8.70
2022-11-17T02:17:13.983Z,8.80
2022-11-17T02:19:43.210Z,9.00
2022-11-17T02:22:13.974Z,9.00
2022-11-17T02:24:44.607Z,9.00
2022-11-17T02:27:18.065Z,9.00
2022-11-17T02:29:52.196Z,9.00
2022-11-17T02:32:24.684Z,8.90
2022-11-17T02:35:03.923Z,8.80
2022-11-17T02:37:33.431Z,9.00
2022-11-17T02:40:00.856Z,9.00
2022-11-17T02:42:52.668Z,9.00
2022-11-17T02:45:26.067Z,9.20
2022-11-17T02:47:54.869Z,9.20
2022-11-17T02:50:28.224Z,9.20
2022-11-17T02:52:56.776Z,9.10
2022-11-17T02:55:24.345Z,8.90
2022-11-17T02:57:51.805Z,8.80
2022-11-17T03:00:20.172Z,8.90
2022-11-17T03:03:00.420Z,8.90
2022-11-17T03:05:28.067Z,9.00
2022-11-17T03:08:09.273Z,9.00
2022-11-17T03:10:52.358Z,9.00
2022-11-17T03:13:34.561Z,8.80
2022-11-17T03:16:02.191Z,8.60
2022-11-17T03:18:30.841Z,8.60
2022-11-17T03:21:01.469Z,8.60
2022-11-17T03:23:34.324Z,8.60
2022-11-17T03:26:02.863Z,8.70
2022-11-17T03:28:30.874Z,8.90
2022-11-17T03:30:59.069Z,8.80
2022-11-17T03:33:27.774Z,8.90
2022-11-17T03:35:59.502Z,8.90
2022-11-17T03:38:29.021Z,8.70
2022-11-17T03:40:58.188Z,8.70
2022-11-17T03:43:27.475Z,8.60
2022-11-17T03:45:56.285Z,8.40
2022-11-17T03:48:34.132Z,8.30
2022-11-17T03:51:25.044Z,8.60
2022-11-17T03:53:52.936Z,8.70
2022-11-17T03:56:38.796Z,8.70
2022-11-17T03:59:22.891Z,8.70
2022-11-17T04:01:51.050Z,8.60
2022-11-17T04:04:21.562Z,8.60
2022-11-17T04:06:50.741Z,8.50
2022-11-17T04:09:24.051Z,8.60
2022-11-17T04:12:10.551Z,8.50
2022-11-17T04:14:56.742Z,8.60
2022-11-17T04:17:24.383Z,8.40
2022-11-17T04:19:51.842Z,8.20
2022-11-17T04:22:19.336Z,8.20
2022-11-17T04:24:46.840Z,8.20
2022-11-17T04:27:32.935Z,8.30
2022-11-17T04:30:00.404Z,8.20
2022-11-17T04:32:27.845Z,8.00
2022-11-17T04:34:55.245Z,8.00
2022-11-17T04:37:22.921Z,8.10
2022-11-17T04:39:50.371Z,8.20
2022-11-17T04:42:18.168Z,8.30
2022-11-17T04:44:45.639Z,8.20
2022-11-17T04:47:13.136Z,8.40
2022-11-17T04:49:40.690Z,8.30
2022-11-17T04:52:08.265Z,8.20
2022-11-17T04:54:35.738Z,8.20
2022-11-17T04:57:03.274Z,8.20
2022-11-17T04:59:30.756Z,8.20
2022-11-17T05:02:04.141Z,8.10
2022-11-17T05:04:51.848Z,8.20
2022-11-17T05:07:19.401Z,8.30
2022-11-17T05:09:46.879Z,8.30
2022-11-17T05:12:33.068Z,8.40
2022-11-17T05:15:00.607Z,8.40
2022-11-17T05:17:28.127Z,8.50
2022-11-17T05:19:56.494Z,8.50
2022-11-17T05:22:42.745Z,8.60
2022-11-17T05:25:10.774Z,8.60
2022-11-17T05:27:38.303Z,8.60
2022-11-17T05:30:06.774Z,8.60
2022-11-17T05:32:34.244Z,8.60
2022-11-17T05:35:01.732Z,8.60
2022-11-17T05:37:29.148Z,8.70
2022-11-17T05:39:56.680Z,8.60
2022-11-17T05:42:24.124Z,8.60
2022-11-17T05:44:51.588Z,8.60
2022-11-17T05:47:19.116Z,8.70
2022-11-17T05:49:46.514Z,8.80
2022-11-17T05:52:14.019Z,8.90
2022-11-17T05:54:41.518Z,8.90
2022-11-17T05:57:11.956Z,8.90
2022-11-17T05:59:56.924Z,8.80
2022-11-17T06:02:26.529Z,8.80
2022-11-17T06:04:53.988Z,8.90
2022-11-17T06:07:21.511Z,8.90
2022-11-17T06:09:49.951Z,8.90
2022-11-17T06:12:17.515Z,8.80
2022-11-17T06:14:45.128Z,8.80
2022-11-17T06:17:22.217Z,8.90
2022-11-17T06:20:10.610Z,9.00
2022-11-17T06:22:38.344Z,9.00
2022-11-17T06:25:07.268Z,9.00
2022-11-17T06:27:35.687Z,9.00
2022-11-17T06:30:04.721Z,8.90
2022-11-17T06:32:33.562Z,8.70
2022-11-17T06:35:01.603Z,8.70
2022-11-17T06:37:29.113Z,8.60
2022-11-17T06:39:56.649Z,8.50
2022-11-17T06:42:44.103Z,8.70
2022-11-17T06:45:11.874Z,8.80
2022-11-17T06:47:39.421Z,8.70
2022-11-17T06:50:07.635Z,8.70
2022-11-17T06:52:35.171Z,8.60
2022-11-17T06:55:02.765Z,8.60
2022-11-17T06:57:30.316Z,8.60
2022-11-17T06:59:57.844Z,8.60
2022-11-17T07:02:25.604Z,8.70
2022-11-17T07:04:53.086Z,8.70
2022-11-17T07:07:20.587Z,8.80
2022-11-17T07:09:48.089Z,8.70
2022-11-17T07:12:16.376Z,8.80
2022-11-17T07:14:43.919Z,8.80
2022-11-17T07:17:11.622Z,9.00
2022-11-17T07:19:39.172Z,9.00
2022-11-17T07:22:06.816Z,9.00
2022-11-17T07:24:34.421Z,8.90
2022-11-17T07:27:01.996Z,9.00
2022-11-17T07:29:31.025Z,9.10
2022-11-17T07:31:58.531Z,9.00
2022-11-17T07:34:26.003Z,8.90
2022-11-17T07:36:54.359Z,8.90
2022-11-17T07:39:22.185Z,8.70
2022-11-17T07:41:49.830Z,8.80
2022-11-17T07:44:17.421Z,8.80
2022-11-17T07:46:45.084Z,8.90
2022-11-17T07:49:12.552Z,8.90
2022-11-17T07:51:40.088Z,9.00
2022-11-17T07:54:07.644Z,9.10
2022-11-17T07:56:35.258Z,9.10
2022-11-17T07:59:02.844Z,9.10
2022-11-17T08:01:30.499Z,9.20
2022-11-17T08:03:58.766Z,9.10
2022-11-17T08:06:26.456Z,9.10
2022-11-17T08:08:54.626Z,9.20
2022-11-17T08:11:22.269Z,9.20
2022-11-17T08:13:51.010Z,9.20
2022-11-17T08:16:18.640Z,9.00
2022-11-17T08:18:52.034Z,9.10
2022-11-17T08:21:20.363Z,9.10
2022-11-17T08:23:51.073Z,9.30
2022-11-17T08:26:20.655Z,9.30
2022-11-17T08:28:51.065Z,9.40
2022-11-17T08:31:21.317Z,9.60
2022-11-17T08:33:48.761Z,9.70
2022-11-17T08:36:16.321Z,9.70
2022-11-17T08:38:43.969Z,9.70
2022-11-17T08:41:11.575Z,9.80
2022-11-17T08:43:39.200Z,9.80
2022-11-17T08:46:11.395Z,9.60
2022-11-17T08:48:41.469Z,9.60
2022-11-17T08:51:09.643Z,9.60
2022-11-17T08:53:37.188Z,9.70
2022-11-17T08:56:08.688Z,9.80
2022-11-17T08:58:43.310Z,9.70
2022-11-17T09:01:11.429Z,9.90
2022-11-17T09:03:39.069Z,9.90
2022-11-17T09:06:06.709Z,10.10
2022-11-17T09:08:49.590Z,10.20
2022-11-17T09:11:17.246Z,10.20
2022-11-17T09:13:45.965Z,10.10
2022-11-17T09:16:13.963Z,10.20
2022-11-17T09:18:41.784Z,10.20
2022-11-17T09:21:10.847Z,10.30
2022-11-17T09:23:39.311Z,10.20
2022-11-17T09:26:08.451Z,10.30
2022-11-17T09:28:36.345Z,10.30
2022-11-17T09:31:08.491Z,10.20
2022-11-17T09:33:36.395Z,10.10
2022-11-17T09:36:04.317Z,10.10
2022-11-17T09:38:31.923Z,10.10
2022-11-17T09:40:59.956Z,10.10
2022-11-17T09:43:28.780Z,10.10
2022-11-17T09:46:25.838Z,10.20
2022-11-17T09:49:04.564Z,10.20
2022-11-17T09:51:34.526Z,10.20
2022-11-17T09:54:07.515Z,10.30
2022-11-17T09:56:35.410Z,10.20
2022-11-17T09:59:12.300Z,10.30
2022-11-17T10:01:39.940Z,10.40
2022-11-17T10:04:17.062Z,10.40
2022-11-17T10:06:46.458Z,10.40
2022-11-17T10:09:25.960Z,10.40
2022-11-17T10:11:54.668Z,10.30
2022-11-17T10:14:22.708Z,10.30
2022-11-17T10:16:50.229Z,10.50
2022-11-17T10:19:23.732Z,10.60
2022-11-17T10:21:56.742Z,10.60
2022-11-17T10:24:36.631Z,10.60
2022-11-17T10:27:06.089Z,10.60
2022-11-17T10:29:33.707Z,10.50
2022-11-17T10:32:03.782Z,10.40
2022-11-17T10:34:38.927Z,10.80
2022-11-17T10:37:15.404Z,10.80
2022-11-17T10:39:43.437Z,11.00
2022-11-17T10:42:27.899Z,11.10
2022-11-17T10:45:00.631Z,11.20
2022-11-17T10:47:38.469Z,11.10
2022-11-17T10:50:08.288Z,11.20
2022-11-17T10:52:35.877Z,11.20
2022-11-17T10:55:22.172Z,11.20
2022-11-17T10:57:52.292Z,11.20
2022-11-17T11:00:30.864Z,11.20
2022-11-17T11:03:18.663Z,11.30
2022-11-17T11:05:56.986Z,11.50
2022-11-17T11:08:26.487Z,11.60
2022-11-17T11:10:55.491Z,11.70
2022-11-17T11:13:26.307Z,11.80
2022-11-17T11:15:54.077Z,11.70
2022-11-17T11:18:22.143Z,11.60
2022-11-17T11:20:55.685Z,11.50
2022-11-17T11:23:29.283Z,11.40
2022-11-17T11:26:17.594Z,11.40
2022-11-17T11:28:55.048Z,11.50
2022-11-17T11:31:36.538Z,11.50
2022-11-17T11:34:22.991Z,11.60
2022-11-17T11:37:03.224Z,11.70
2022-11-17T11:39:50.480Z,12.00
2022-11-17T11:42:42.911Z,12.20
2022-11-17T11:45:17.248Z,12.00
2022-11-17T11:47:51.022Z,12.30
2022-11-17T11:50:22.341Z,12.50
2022-11-17T11:52:59.547Z,12.60
2022-11-17T11:55:30.599Z,12.90
2022-11-17T11:58:01.224Z,13.20
2022-11-17T12:00:28.903Z,13.40
2022-11-17T12:03:03.280Z,13.70
2022-11-17T12:05:56.782Z,13.60
2022-11-17T12:08:27.453Z,13.60
2022-11-17T12:10:59.067Z,13.30
2022-11-17T12:13:27.257Z,13.30
2022-11-17T12:16:14.909Z,13.20
2022-11-17T12:18:42.486Z,13.00
2022-11-17T12:21:13.385Z,12.90
2022-11-17T12:23:47.908Z,12.90
2022-11-17T12:26:30.652Z,12.90
2022-11-17T12:29:16.894Z,12.90
2022-11-17T12:31:45.529Z,12.90
2022-11-17T12:34:31.981Z,12.80
2022-11-17T12:37:05.338Z,12.70
2022-11-17T12:39:53.051Z,12.70
2022-11-17T12:42:20.534Z,12.70
2022-11-17T12:44:48.092Z,12.70
2022-11-17T12:47:21.882Z,12.70
2022-11-17T12:49:52.583Z,12.80
2022-11-17T12:52:25.074Z,12.80
2022-11-17T12:55:00.613Z,12.80
2022-11-17T12:57:30.956Z,13.00
2022-11-17T13:00:17.833Z,13.10
2022-11-17T13:02:56.381Z,13.20
2022-11-17T13:05:25.155Z,13.00
2022-11-17T13:08:11.602Z,13.00
2022-11-17T13:10:39.191Z,12.90
2022-11-17T13:13:14.264Z,12.90
2022-11-17T13:15:42.970Z,12.90
2022-11-17T13:18:23.809Z,12.90
2022-11-17T13:20:51.333Z,12.90
2022-11-17T13:23:29.401Z,12.90
2022-11-17T13:26:15.775Z,12.90
2022-11-17T13:28:44.027Z,12.80
2022-11-17T13:31:19.307Z,12.80
2022-11-17T13:33:59.545Z,12.80
2022-11-17T13:36:27.507Z,12.80
2022-11-17T13:38:57.481Z,12.80
2022-11-17T13:41:26.085Z,13.00
2022-11-17T13:43:53.996Z,13.00
2022-11-17T13:46:21.865Z,13.00
2022-11-17T13:48:50.556Z,13.00
2022-11-17T13:51:27.995Z,13.00
2022-11-17T13:54:14.342Z,12.90
2022-11-17T13:56:49.224Z,12.70
2022-11-17T13:59:25.006Z,12.70
2022-11-17T14:02:11.333Z,12.60
2022-11-17T14:04:38.962Z,12.60
2022-11-17T14:07:10.406Z,12.70
2022-11-17T14:09:38.084Z,12.70
2022-11-17T14:12:09.332Z,12.70
2022-11-17T14:14:36.888Z,12.70
2022-11-17T14:17:33.854Z,12.70
2022-11-17T14:20:18.339Z,12.70
2022-11-17T14:23:06.081Z,12.70
2022-11-17T14:25:34.936Z,12.70
2022-11-17T14:28:02.450Z,12.70
2022-11-17T14:30:30.173Z,12.70
2022-11-17T14:33:05.386Z,12.70
2022-11-17T14:35:35.592Z,12.80
2022-11-17T14:38:03.781Z,12.80
2022-11-17T14:40:31.331Z,12.80
2022-11-17T14:42:59.082Z,12.80
2022-11-17T14:45:26.674Z,12.80
2022-11-17T14:47:54.359Z,12.70
2022-11-17T14:50:22.133Z,12.80
2022-11-17T14:52:49.607Z,12.70
2022-11-17T14:55:17.211Z,12.70
2022-11-17T14:57:45.249Z,12.60
2022-11-17T15:00:17.378Z,12.60
2022-11-17T15:02:47.850Z,12.50
2022-11-17T15:05:15.431Z,12.50
2022-11-17T15:07:43.484Z,12.50
2022-11-17T15:10:11.619Z,12.50
2022-11-17T15:12:39.089Z,12.50
2022-11-17T15:15:06.824Z,12.50
2022-11-17T15:17:34.469Z,12.60
2022-11-17T15:20:02.060Z,12.50
2022-11-17T15:22:29.556Z,12.50
2022-11-17T15:24:57.101Z,12.50
2022-11-17T15:27:24.605Z,12.40
2022-11-17T15:29:52.200Z,12.40
2022-11-17T15:32:19.713Z,12.40
2022-11-17T15:34:47.178Z,12.40
2022-11-17T15:37:14.695Z,12.40
2022-11-17T15:39:42.143Z,12.40
2022-11-17T15:42:09.728Z,12.30
2022-11-17T15:44:37.259Z,12.30
2022-11-17T15:47:04.887Z,12.30
2022-11-17T15:49:32.374Z,12.30
2022-11-17T15:51:59.982Z,12.30
2022-11-17T15:54:27.562Z,12.30
2022-11-17T15:56:55.749Z,12.30
2022-11-17T15:59:23.400Z,12.40
2022-11-17T16:01:50.893Z,12.40
2022-11-17T16:04:18.422Z,12.30
2022-11-17T16:06:46.451Z,12.30
2022-11-17T16:09:15.310Z,12.30
2022-11-17T16:11:43.508Z,12.30
2022-11-17T16:14:12.043Z,12.30
2022-11-17T16:16:39.894Z,12.20
2022-11-17T16:19:07.535Z,12.20
2022-11-17T16:21:35.097Z,12.20
2022-11-17T16:24:03.488Z,12.20
2022-11-17T16:26:31.416Z,12.20
2022-11-17T16:29:04.335Z,12.20
2022-11-17T16:31:35.874Z,12.20
2022-11-17T16:34:08.356Z,12.10
2022-11-17T16:36:37.949Z,12.20
2022-11-17T16:39:06.840Z,12.10
2022-11-17T16:41:35.252Z,12.10
2022-11-17T16:44:06.656Z,12.10
2022-11-17T16:46:34.575Z,12.10
2022-11-17T16:49:03.219Z,12.20
2022-11-17T16:51:30.849Z,12.20
2022-11-17T16:54:02.295Z,12.10
2022-11-17T16:56:29.934Z,12.10
2022-11-17T16:58:57.622Z,12.10
2022-11-17T17:01:26.589Z,12.10
2022-11-17T17:03:58.212Z,12.10
2022-11-17T17:06:26.212Z,12.20
2022-11-17T17:08:57.961Z,12.20
2022-11-17T17:11:26.180Z,12.10
2022-11-17T17:13:53.797Z,12.00
2022-11-17T17:16:21.426Z,12.00
2022-11-17T17:18:54.329Z,12.00
2022-11-17T17:21:21.894Z,12.00
2022-11-17T17:23:49.469Z,12.00
2022-11-17T17:26:18.597Z,12.10
2022-11-17T17:28:47.147Z,12.10
2022-11-17T17:31:20.969Z,12.10
2022-11-17T17:33:50.301Z,12.00
2022-11-17T17:36:22.261Z,12.00
2022-11-17T17:38:55.338Z,12.00
2022-11-17T17:41:27.526Z,12.00
2022-11-17T17:43:59.524Z,12.00
2022-11-17T17:46:27.479Z,12.00
2022-11-17T17:48:54.928Z,12.00
2022-11-17T17:51:25.877Z,12.10
2022-11-17T17:53:58.418Z,12.10
2022-11-17T17:56:26.155Z,12.10
2022-11-17T17:58:57.011Z,12.10
2022-11-17T18:01:25.810Z,12.10
2022-11-17T18:03:54.194Z,12.10
2022-11-17T18:06:22.503Z,12.10
2022-11-17T18:08:50.219Z,12.10
2022-11-17T18:11:21.127Z,12.10
2022-11-17T18:13:49.937Z,12.10
2022-11-17T18:16:20.095Z,12.10
2022-11-17T18:18:47.648Z,12.10
2022-11-17T18:21:16.578Z,12.10
2022-11-17T18:23:44.087Z,12.10
2022-11-17T18:26:16.683Z,12.00
2022-11-17T18:28:49.298Z,12.10
2022-11-17T18:31:16.958Z,12.00
2022-11-17T18:33:45.591Z,12.00
2022-11-17T18:36:13.408Z,12.10
2022-11-17T18:38:40.971Z,12.10
2022-11-17T18:41:12.752Z,12.10
2022-11-17T18:43:40.280Z,12.00
2022-11-17T18:46:11.997Z,12.00
2022-11-17T18:48:40.565Z,12.10
2022-11-17T18:51:24.561Z,12.00
2022-11-17T18:53:53.528Z,12.10
2022-11-17T18:56:25.525Z,12.10
2022-11-17T18:58:53.202Z,12.10
2022-11-17T19:01:22.454Z,12.00
2022-11-17T19:03:51.357Z,12.10
2022-11-17T19:06:19.536Z,12.20
2022-11-17T19:08:48.297Z,12.30
2022-11-17T19:11:16.415Z,12.20
2022-11-17T19:13:44.051Z,12.10
2022-11-17T19:16:13.227Z,12.10
2022-11-17T19:18:41.040Z,12.10
2022-11-17T19:21:09.993Z,12.00
2022-11-17T19:23:38.557Z,12.00
2022-11-17T19:26:07.068Z,12.00
2022-11-17T19:28:34.808Z,12.00
2022-11-17T19:31:12.400Z,12.10
2022-11-17T19:33:40.506Z,12.10
2022-11-17T19:36:09.506Z,12.00
2022-11-17T19:38:38.742Z,12.00
2022-11-17T19:41:07.465Z,12.00
2022-11-17T19:43:39.009Z,12.00
2022-11-17T19:46:11.749Z,12.00
2022-11-17T19:48:39.570Z,11.90
2022-11-17T19:51:14.616Z,12.00
2022-11-17T19:53:42.307Z,12.00
2022-11-17T19:56:10.156Z,12.10
2022-11-17T19:58:37.703Z,12.10
2022-11-17T20:01:12.145Z,12.00
2022-11-17T20:03:39.940Z,12.00
2022-11-17T20:06:08.645Z,12.00
2022-11-17T20:08:36.432Z,12.00
2022-11-17T20:11:04.442Z,12.00
2022-11-17T20:13:33.007Z,12.00
2022-11-17T20:16:01.348Z,12.00
2022-11-17T20:18:30.062Z,12.10
2022-11-17T20:20:58.012Z,12.10
2022-11-17T20:23:25.927Z,12.10
2022-11-17T20:25:53.504Z,12.10
2022-11-17T20:28:21.065Z,12.10
2022-11-17T20:30:48.625Z,12.10
2022-11-17T20:33:16.293Z,12.10
2022-11-17T20:35:43.740Z,12.20
2022-11-17T20:38:15.587Z,12.20
2022-11-17T20:40:43.446Z,12.20
2022-11-17T20:43:10.881Z,12.20
2022-11-17T20:45:38.293Z,12.30
2022-11-17T20:48:06.009Z,12.30
2022-11-17T20:50:33.525Z,12.20
2022-11-17T20:53:01.080Z,12.20
2022-11-17T20:55:28.625Z,12.20
2022-11-17T20:57:56.115Z,12.20
2022-11-17T21:00:23.612Z,12.20
2022-11-17T21:02:51.127Z,12.20
2022-11-17T21:05:18.614Z,12.20
2022-11-17T21:07:46.129Z,12.20
2022-11-17T21:10:13.674Z,12.20
2022-11-17T21:12:41.306Z,12.20
2022-11-17T21:15:09.091Z,12.20
2022-11-17T21:17:59.671Z,12.20
2022-11-17T21:20:29.980Z,12.20
2022-11-17T21:22:57.529Z,12.30
2022-11-17T21:25:25.142Z,12.30
2022-11-17T21:27:52.666Z,12.30
2022-11-17T21:30:20.849Z,12.30
2022-11-17T21:32:48.717Z,12.30
2022-11-17T21:35:16.499Z,12.30
2022-11-17T21:37:44.017Z,12.30
2022-11-17T21:40:11.844Z,12.30
2022-11-17T21:42:39.420Z,12.30
2022-11-17T21:45:08.473Z,12.30
2022-11-17T21:47:35.914Z,12.30
2022-11-17T21:50:03.522Z,12.30
2022-11-17T21:52:31.113Z,12.30
2022-11-17T21:54:58.707Z,12.30
2022-11-17T21:57:26.268Z,12.30
2022-11-17T21:59:53.863Z,12.30
2022-11-17T22:02:22.332Z,12.20
2022-11-17T22:04:49.874Z,12.20
2022-11-17T22:07:17.348Z,12.30
2022-11-17T22:09:44.941Z,12.20
2022-11-17T22:12:14.748Z,12.30
2022-11-17T22:14:42.196Z,12.30
2022-11-17T22:17:09.810Z,12.30
2022-11-17T22:19:37.430Z,12.30
2022-11-17T22:22:04.962Z,12.20
2022-11-17T22:24:32.503Z,12.20
2022-11-17T22:27:00.002Z,12.20
2022-11-17T22:29:27.538Z,12.10
2022-11-17T22:31:55.248Z,12.20
2022-11-17T22:34:23.007Z,12.10
2022-11-17T22:36:50.426Z,12.20
2022-11-17T22:39:18.462Z,12.20
2022-11-17T22:41:46.150Z,12.20
2022-11-17T22:44:14.621Z,12.10
2022-11-17T22:46:43.477Z,12.10
2022-11-17T22:49:10.943Z,12.10
2022-11-17T22:51:57.199Z,12.10
2022-11-17T22:54:24.806Z,12.10
2022-11-17T22:56:52.391Z,12.10
2022-11-17T22:59:21.504Z,12.10
2022-11-17T23:01:49.098Z,12.10
2022-11-17T23:04:16.698Z,12.10
2022-11-17T23:06:44.649Z,12.10
2022-11-17T23:09:12.397Z,12.10
2022-11-17T23:11:39.939Z,12.10
2022-11-17T23:14:09.166Z,12.10
2022-11-17T23:16:37.730Z,12.20
2022-11-17T23:19:05.650Z,12.40
2022-11-17T23:21:33.145Z,12.40
2022-11-17T23:24:00.709Z,12.50
2022-11-17T23:26:28.329Z,12.50
2022-11-17T23:28:55.821Z,12.40
2022-11-17T23:31:23.326Z,12.30
2022-11-17T23:33:50.994Z,12.30
2022-11-17T23:36:19.853Z,12.20
2022-11-17T23:38:47.685Z,12.10
2022-11-17T23:41:16.165Z,12.10
2022-11-17T23:43:43.650Z,12.00
2022-11-17T23:46:13.553Z,12.00
2022-11-17T23:48:41.552Z,12.00
2022-11-17T23:51:13.459Z,12.10
2022-11-17T23:53:41.258Z,12.20
2022-11-17T23:56:09.346Z,12.30
2022-11-17T23:58:37.223Z,12.40
